Time;durP1;ratioP1;P1;durP2;ratioP2;P2;SDS_P1;SDS_P2;PMS_P1;PMS_P2;Temp;Humidity;BMP_temperature;BMP_pressure;BME280_temperature;BME280_humidity;BME280_pressure;Samples;Min_cycle;Max_cycle;Signal;HPM_P1;HPM_P2
2022/12/26 00:00:50;;;;;;;;;;;10.80;99.90;;;;;;5095278;28;19908;-65
2022/12/26 00:03:16;;;;;;;;;;;10.80;99.90;;;;;;5095243;28;19908;-65
2022/12/26 00:05:41;;;;;;;;;;;10.80;99.90;;;;;;5095173;28;19931;-65
2022/12/26 00:08:06;;;;;;;;;;;10.80;99.90;;;;;;5095078;28;19908;-65
2022/12/26 00:10:32;;;;;;;;;;;10.80;99.90;;;;;;5095366;28;19965;-65
2022/12/26 00:12:57;;;;;;;;;;;10.90;99.90;;;;;;5094970;28;19912;-65
2022/12/26 00:15:23;;;;;;;;;;;10.90;99.90;;;;;;5094975;28;19908;-65
2022/12/26 00:17:48;;;;;;;;;;;10.90;99.90;;;;;;5094382;28;19931;-65
2022/12/26 00:20:14;;;;;;;;;;;10.90;99.90;;;;;;5095227;28;19908;-65
2022/12/26 00:22:39;;;;;;;;;;;10.80;99.90;;;;;;5094900;28;19912;-65
2022/12/26 00:25:05;;;;;;;;;;;10.90;99.90;;;;;;5094803;28;19944;-65
2022/12/26 00:27:31;;;;;;;;;;;10.80;99.90;;;;;;5094769;28;19915;-65
2022/12/26 00:29:56;;;;;;;;;;;10.80;99.90;;;;;;5076600;28;19914;-65
2022/12/26 00:32:22;;;;;;;;;;;10.90;99.90;;;;;;5094590;28;19924;-65
2022/12/26 00:34:47;;;;;;;;;;;10.80;99.90;;;;;;5094643;28;19908;-65
2022/12/26 00:37:13;;;;;;;;;;;10.80;99.90;;;;;;5076444;28;19962;-66
2022/12/26 00:39:38;;;;;;;;;;;10.80;99.90;;;;;;5094819;28;19912;-65
2022/12/26 00:42:04;;;;;;;;;;;10.80;99.90;;;;;;5094556;28;19915;-65
2022/12/26 00:44:29;;;;;;;;;;;10.80;99.90;;;;;;5094742;28;19908;-65
2022/12/26 00:46:54;;;;;;;;;;;10.80;99.90;;;;;;5094655;28;19908;-65
2022/12/26 00:49:20;;;;;;;;;;;10.80;99.90;;;;;;5094460;28;19961;-65
2022/12/26 00:51:45;;;;;;;;;;;10.80;99.90;;;;;;5094580;28;19912;-65
2022/12/26 00:54:11;;;;;;;;;;;10.80;99.90;;;;;;5094532;28;19920;-65
2022/12/26 00:56:36;;;;;;;;;;;10.80;99.90;;;;;;5094220;28;19908;-65
2022/12/26 00:59:02;;;;;;;;;;;10.80;99.90;;;;;;5094212;28;19957;-65
2022/12/26 01:01:29;;;;;;;;;;;10.80;99.90;;;;;;5094190;28;19966;-65
2022/12/26 01:03:55;;;;;;;;;;;10.80;99.90;;;;;;5094358;28;19908;-65
2022/12/26 01:06:21;;;;;;;;;;;10.80;99.90;;;;;;5094079;28;19955;-65
2022/12/26 01:08:46;;;;;;;;;;;10.80;99.90;;;;;;5094028;28;19940;-65
2022/12/26 01:11:13;;;;;;;;;;;10.80;99.90;;;;;;5094044;28;19962;-65
2022/12/26 01:13:39;;;;;;;;;;;10.80;99.90;;;;;;5093957;28;19961;-65
2022/12/26 01:16:05;;;;;;;;;;;10.70;99.90;;;;;;5094227;28;19912;-65
2022/12/26 01:18:31;;;;;;;;;;;10.70;99.90;;;;;;5094183;28;20431;-65
2022/12/26 01:20:59;;;;;;;;;;;10.70;99.90;;;;;;5093889;28;19908;-65
2022/12/26 01:23:25;;;;;;;;;;;10.70;99.90;;;;;;5093927;28;19908;-65
2022/12/26 01:25:50;;;;;;;;;;;10.70;99.90;;;;;;5094076;28;19908;-65
2022/12/26 01:28:15;;;;;;;;;;;10.70;99.90;;;;;;5093897;28;19915;-65
2022/12/26 01:30:41;;;;;;;;;;;10.70;99.90;;;;;;5093827;28;20002;-65
2022/12/26 01:33:06;;;;;;;;;;;10.70;99.90;;;;;;5093507;28;19970;-65
2022/12/26 01:35:32;;;;;;;;;;;10.70;99.90;;;;;;5094034;28;19913;-65
2022/12/26 01:37:57;;;;;;;;;;;10.60;99.90;;;;;;5093791;28;19908;-65
2022/12/26 01:40:23;;;;;;;;;;;10.60;99.90;;;;;;5093713;28;19957;-65
2022/12/26 01:42:48;;;;;;;;;;;10.60;99.90;;;;;;5093945;28;19908;-65
2022/12/26 01:45:30;;;;;;;;;;;10.60;99.90;;;;;;5075591;28;19908;-65
2022/12/26 01:48:05;;;;;;;;;;;10.60;99.90;;;;;;5093871;28;19938;-65
2022/12/26 01:50:35;;;;;;;;;;;10.60;99.90;;;;;;5093882;28;20289;-65
2022/12/26 01:53:04;;;;;;;;;;;10.60;99.90;;;;;;5093763;28;19916;-65
2022/12/26 01:55:30;;;;;;;;;;;10.50;99.90;;;;;;5093841;28;20361;-65
2022/12/26 01:57:59;;;;;;;;;;;10.60;99.90;;;;;;5093579;28;19923;-65
2022/12/26 02:00:24;;;;;;;;;;;10.50;99.90;;;;;;5093480;28;19962;-65
2022/12/26 02:05:36;;;;;;;;;;;10.50;99.90;;;;;;5093311;28;19908;-65
2022/12/26 02:08:03;;;;;;;;;;;10.50;99.90;;;;;;5093711;28;19908;-65
2022/12/26 02:10:30;;;;;;;;;;;10.50;99.90;;;;;;5093410;28;19950;-65
2022/12/26 02:12:56;;;;;;;;;;;10.50;99.90;;;;;;5093553;28;19974;-65
2022/12/26 02:15:22;;;;;;;;;;;10.50;99.90;;;;;;5093342;28;19912;-65
2022/12/26 02:17:47;;;;;;;;;;;10.50;99.90;;;;;;5093349;28;19978;-65
2022/12/26 02:20:18;;;;;;;;;;;10.50;99.90;;;;;;5093314;28;19912;-65
2022/12/26 02:23:04;;;;;;;;;;;10.40;99.90;;;;;;5093570;28;19930;-66
2022/12/26 02:25:43;;;;;;;;;;;10.40;99.90;;;;;;5093233;28;19970;-65
2022/12/26 02:28:28;;;;;;;;;;;10.40;99.90;;;;;;5093539;28;19915;-65
2022/12/26 02:30:59;;;;;;;;;;;10.40;99.90;;;;;;5093124;28;19908;-65
2022/12/26 02:33:44;;;;;;;;;;;10.40;99.90;;;;;;5092999;28;20011;-65
2022/12/26 02:36:16;;;;;;;;;;;10.40;99.90;;;;;;5093485;28;19974;-65
2022/12/26 02:39:01;;;;;;;;;;;10.40;99.90;;;;;;5093439;28;20376;-65
2022/12/26 02:41:32;;;;;;;;;;;10.50;99.90;;;;;;5096258;28;19962;-65
2022/12/26 02:47:13;;;;;;;;;;;10.40;99.90;;;;;;5096531;28;19915;-65
2022/12/26 03:15:15;;;;;;;;;;;10.30;99.90;;;;;;5070392;28;20003;-64
2022/12/26 03:17:43;;;;;;;;;;;10.40;99.90;;;;;;5070587;28;19909;-64
2022/12/26 03:20:14;;;;;;;;;;;10.40;99.90;;;;;;5070522;28;19912;-64
2022/12/26 03:22:43;;;;;;;;;;;10.30;99.90;;;;;;5070762;28;20305;-64
2022/12/26 03:27:56;;;;;;;;;;;10.30;99.90;;;;;;5070270;28;19908;-64
2022/12/26 03:30:52;;;;;;;;;;;10.30;99.90;;;;;;5070375;28;20285;-64
2022/12/26 03:34:15;;;;;;;;;;;10.30;99.90;;;;;;5070063;28;20278;-64
2022/12/26 03:35:52;;;;;;;;;;;10.30;99.90;;;;;;5070086;28;20030;-64
2022/12/26 03:38:21;;;;;;;;;;;10.30;99.90;;;;;;5070429;28;19909;-64
2022/12/26 04:20:58;;;;;;;;;;;10.30;99.90;;;;;;5055986;28;19909;-64
2022/12/26 04:45:51;;;;;;;;;;;10.20;99.90;;;;;;5055530;28;20037;-64
2022/12/26 04:51:02;;;;;;;;;;;10.20;99.90;;;;;;5055479;28;19909;-64
2022/12/26 04:53:28;;;;;;;;;;;10.10;99.90;;;;;;5060315;28;19921;-64
2022/12/26 04:55:53;;;;;;;;;;;10.20;99.90;;;;;;5075461;28;19912;-64
2022/12/26 04:58:19;;;;;;;;;;;10.20;99.90;;;;;;5075644;28;19919;-64
2022/12/26 05:00:45;;;;;;;;;;;10.10;99.90;;;;;;5075642;28;20285;-64
2022/12/26 05:11:31;;;;;;;;;;;10.00;99.90;;;;;;5074954;28;19909;-64
2022/12/26 05:13:57;;;;;;;;;;;10.00;99.90;;;;;;5075338;28;19912;-64
2022/12/26 05:30:17;;;;;;;;;;;9.80;99.90;;;;;;5074548;28;20102;-64
2022/12/26 05:35:28;;;;;;;;;;;9.80;99.90;;;;;;5074455;28;20007;-64
2022/12/26 05:37:53;;;;;;;;;;;9.80;99.90;;;;;;5074650;28;19955;-64
2022/12/26 05:40:19;;;;;;;;;;;9.80;99.90;;;;;;5074634;28;19916;-64
2022/12/26 05:42:44;;;;;;;;;;;9.80;99.90;;;;;;5074628;28;19908;-64
2022/12/26 05:45:10;;;;;;;;;;;9.80;99.90;;;;;;5056603;28;19909;-64
2022/12/26 05:47:35;;;;;;;;;;;9.80;99.90;;;;;;5074420;28;19932;-64
2022/12/26 05:50:01;;;;;;;;;;;9.80;99.90;;;;;;5056642;28;20358;-64
2022/12/26 05:52:27;;;;;;;;;;;9.90;99.90;;;;;;5074317;28;19915;-64
2022/12/26 05:54:52;;;;;;;;;;;9.90;99.90;;;;;;5074019;28;19974;-64
2022/12/26 05:57:18;;;;;;;;;;;9.90;99.90;;;;;;5074280;28;19908;-64
2022/12/26 05:59:43;;;;;;;;;;;9.90;99.90;;;;;;5074280;28;19920;-64
2022/12/26 06:02:08;;;;;;;;;;;9.90;99.90;;;;;;5074115;28;19966;-64
2022/12/26 06:04:35;;;;;;;;;;;9.90;99.90;;;;;;5074135;28;19908;-64
2022/12/26 06:07:01;;;;;;;;;;;9.90;99.90;;;;;;5074330;28;19956;-64
2022/12/26 06:09:26;;;;;;;;;;;9.90;99.90;;;;;;5074006;28;19909;-64
2022/12/26 06:11:52;;;;;;;;;;;9.90;99.90;;;;;;5074021;28;19908;-64
2022/12/26 06:14:17;;;;;;;;;;;9.90;99.90;;;;;;5073959;28;19912;-64
2022/12/26 06:16:42;;;;;;;;;;;9.90;99.90;;;;;;5073970;28;19908;-64
2022/12/26 06:19:08;;;;;;;;;;;9.90;99.90;;;;;;5073916;28;20374;-64
2022/12/26 06:21:33;;;;;;;;;;;9.90;99.90;;;;;;5073861;28;20073;-64
2022/12/26 06:23:59;;;;;;;;;;;9.80;99.90;;;;;;5073870;28;19962;-64
2022/12/26 06:26:25;;;;;;;;;;;9.80;99.90;;;;;;5073862;28;20004;-64
2022/12/26 06:28:50;;;;;;;;;;;9.80;99.90;;;;;;5073789;28;20247;-64
2022/12/26 06:31:19;;;;;;;;;;;9.80;99.90;;;;;;5074028;28;20276;-64
2022/12/26 06:33:45;;;;;;;;;;;9.80;99.90;;;;;;5073921;28;20419;-64
2022/12/26 06:36:12;;;;;;;;;;;9.80;99.90;;;;;;5073929;28;19912;-64
2022/12/26 06:38:37;;;;;;;;;;;9.80;99.90;;;;;;5073919;28;20007;-64
2022/12/26 06:41:04;;;;;;;;;;;9.80;99.90;;;;;;5073652;28;19963;-64
2022/12/26 06:43:29;;;;;;;;;;;9.80;99.90;;;;;;5073606;28;19959;-64
2022/12/26 06:45:55;;;;;;;;;;;9.80;99.90;;;;;;5073885;28;19916;-64
2022/12/26 06:48:21;;;;;;;;;;;9.80;99.90;;;;;;5073544;28;20044;-64
2022/12/26 06:50:46;;;;;;;;;;;9.80;99.90;;;;;;5073548;28;19951;-64
2022/12/26 06:53:12;;;;;;;;;;;9.70;99.90;;;;;;5073302;28;20521;-64
2022/12/26 06:55:37;;;;;;;;;;;9.70;99.90;;;;;;5073531;28;19926;-64
2022/12/26 06:58:03;;;;;;;;;;;9.70;99.90;;;;;;5073470;28;19913;-64
2022/12/26 07:00:28;;;;;;;;;;;9.70;99.90;;;;;;5073521;28;19991;-64
2022/12/26 07:02:54;;;;;;;;;;;9.60;99.90;;;;;;5073668;28;20277;-64
2022/12/26 07:05:20;;;;;;;;;;;9.60;99.90;;;;;;5073417;28;19915;-64
2022/12/26 07:07:49;;;;;;;;;;;9.60;99.90;;;;;;5073444;28;20285;-64
2022/12/26 07:10:14;;;;;;;;;;;9.60;99.90;;;;;;5073680;28;19909;-64
2022/12/26 07:12:40;;;;;;;;;;;9.50;99.90;;;;;;5073614;28;19957;-64
2022/12/26 07:15:08;;;;;;;;;;;9.50;99.90;;;;;;5073268;28;19966;-64
2022/12/26 07:17:34;;;;;;;;;;;9.50;99.90;;;;;;5073589;28;19920;-64
2022/12/26 07:20:00;;;;;;;;;;;9.40;99.90;;;;;;5073276;28;19908;-64
2022/12/26 07:22:25;;;;;;;;;;;9.40;99.90;;;;;;5073283;28;19916;-64
2022/12/26 07:24:50;;;;;;;;;;;9.50;99.90;;;;;;5073508;28;19909;-64
2022/12/26 07:27:16;;;;;;;;;;;9.40;99.90;;;;;;5073496;28;19908;-64
2022/12/26 07:29:41;;;;;;;;;;;9.40;99.90;;;;;;5073486;28;20375;-64
2022/12/26 07:32:07;;;;;;;;;;;9.40;99.90;;;;;;5073092;28;20281;-64
2022/12/26 07:34:32;;;;;;;;;;;9.40;99.90;;;;;;5073068;28;19913;-64
2022/12/26 07:36:58;;;;;;;;;;;9.50;99.90;;;;;;5073389;28;20259;-64
2022/12/26 07:39:23;;;;;;;;;;;9.40;99.90;;;;;;5073186;28;20275;-64
2022/12/26 07:41:56;;;;;;;;;;;9.40;99.90;;;;;;5076495;28;20327;-65
2022/12/26 07:44:21;;;;;;;;;;;9.50;99.90;;;;;;5077075;28;20004;-64
2022/12/26 07:46:47;;;;;;;;;;;9.50;99.90;;;;;;5077037;28;19956;-64
2022/12/26 07:49:13;;;;;;;;;;;9.50;99.90;;;;;;5076960;28;19915;-64
2022/12/26 07:51:38;;;;;;;;;;;9.50;99.90;;;;;;5076624;28;19946;-64
2022/12/26 07:54:04;;;;;;;;;;;9.50;99.90;;;;;;5076387;28;20013;-64
2022/12/26 07:56:31;;;;;;;;;;;9.50;99.90;;;;;;5076873;28;19909;-64
2022/12/26 07:58:56;;;;;;;;;;;9.50;99.90;;;;;;5076826;28;20401;-64
2022/12/26 08:01:22;;;;;;;;;;;9.50;99.90;;;;;;5076793;28;19958;-64
2022/12/26 08:03:48;;;;;;;;;;;9.50;99.90;;;;;;5076539;28;19908;-64
2022/12/26 08:06:13;;;;;;;;;;;9.50;99.90;;;;;;5076711;28;20017;-64
2022/12/26 08:08:39;;;;;;;;;;;9.50;99.90;;;;;;5076328;28;20322;-64
2022/12/26 08:11:05;;;;;;;;;;;9.60;99.90;;;;;;5076601;28;19931;-64
2022/12/26 08:13:31;;;;;;;;;;;9.50;99.90;;;;;;5076238;28;19997;-64
2022/12/26 08:15:56;;;;;;;;;;;9.50;99.90;;;;;;5076314;28;19947;-64
2022/12/26 08:18:22;;;;;;;;;;;9.60;99.90;;;;;;5076457;28;19955;-64
2022/12/26 08:20:48;;;;;;;;;;;9.60;99.90;;;;;;5076130;28;20325;-64
2022/12/26 08:23:14;;;;;;;;;;;9.60;99.90;;;;;;5076137;28;19912;-64
2022/12/26 08:25:39;;;;;;;;;;;9.70;99.90;;;;;;5076056;28;19951;-64
2022/12/26 08:28:05;;;;;;;;;;;9.70;99.90;;;;;;5075927;28;20309;-64
2022/12/26 08:30:30;;;;;;;;;;;9.70;99.90;;;;;;5057598;28;19909;-64
2022/12/26 08:32:56;;;;;;;;;;;9.70;99.90;;;;;;5075936;28;19909;-64
2022/12/26 08:35:21;;;;;;;;;;;9.70;99.90;;;;;;5075954;28;19963;-64
2022/12/26 08:37:47;;;;;;;;;;;9.70;99.90;;;;;;5075829;28;19909;-64
2022/12/26 08:40:12;;;;;;;;;;;9.70;99.90;;;;;;5075796;28;19909;-64
2022/12/26 08:42:38;;;;;;;;;;;9.80;99.90;;;;;;5075784;28;19916;-64
2022/12/26 08:45:03;;;;;;;;;;;9.90;99.90;;;;;;5057846;28;19913;-64
2022/12/26 08:47:29;;;;;;;;;;;9.80;99.90;;;;;;5075642;28;19930;-64
2022/12/26 08:49:54;;;;;;;;;;;9.80;99.90;;;;;;5075569;28;19993;-64
2022/12/26 08:52:20;;;;;;;;;;;9.90;99.90;;;;;;5075484;28;19915;-66
2022/12/26 08:54:45;;;;;;;;;;;9.90;99.90;;;;;;5075348;28;19970;-63
2022/12/26 08:57:10;;;;;;;;;;;10.00;99.90;;;;;;5075534;28;20403;-63
2022/12/26 08:59:36;;;;;;;;;;;10.10;99.90;;;;;;5075462;28;20281;-63
2022/12/26 09:02:02;;;;;;;;;;;10.10;99.90;;;;;;5075446;28;19962;-63
2022/12/26 09:04:27;;;;;;;;;;;10.10;99.90;;;;;;5075208;28;19996;-63
2022/12/26 09:06:52;;;;;;;;;;;10.20;99.90;;;;;;5075228;28;19913;-64
2022/12/26 09:09:18;;;;;;;;;;;10.20;99.90;;;;;;5075261;28;20408;-64
2022/12/26 09:11:43;;;;;;;;;;;10.30;99.90;;;;;;5075492;28;19919;-64
2022/12/26 09:14:09;;;;;;;;;;;10.30;99.90;;;;;;5057520;28;20377;-63
2022/12/26 09:16:40;;;;;;;;;;;10.30;99.90;;;;;;5075123;28;19954;-63
2022/12/26 09:19:08;;;;;;;;;;;10.40;99.90;;;;;;5075066;28;19908;-63
2022/12/26 09:21:33;;;;;;;;;;;10.40;99.90;;;;;;5075009;28;19959;-64
2022/12/26 09:24:00;;;;;;;;;;;10.40;99.90;;;;;;5074911;28;20330;-64
2022/12/26 09:26:26;;;;;;;;;;;10.30;99.90;;;;;;5074905;28;19909;-63
2022/12/26 09:28:52;;;;;;;;;;;10.50;99.90;;;;;;5074964;28;19916;-64
2022/12/26 09:31:19;;;;;;;;;;;10.60;99.90;;;;;;5074859;28;19909;-63
2022/12/26 09:33:46;;;;;;;;;;;10.60;99.90;;;;;;5075171;28;19962;-63
2022/12/26 09:36:12;;;;;;;;;;;10.60;99.90;;;;;;5057238;28;19916;-63
2022/12/26 09:38:38;;;;;;;;;;;10.70;99.90;;;;;;5074610;28;19909;-63
2022/12/26 09:41:19;;;;;;;;;;;10.80;99.90;;;;;;5074898;28;19959;-64
2022/12/26 09:44:05;;;;;;;;;;;10.90;99.90;;;;;;5074821;28;20393;-63
2022/12/26 09:46:35;;;;;;;;;;;11.00;99.90;;;;;;5074432;28;19915;-63
2022/12/26 09:49:05;;;;;;;;;;;11.10;99.90;;;;;;5074589;28;19931;-64
2022/12/26 09:51:31;;;;;;;;;;;11.30;99.90;;;;;;5074302;28;19922;-64
2022/12/26 09:53:58;;;;;;;;;;;11.30;99.90;;;;;;5074128;28;20293;-64
2022/12/26 09:56:24;;;;;;;;;;;11.50;99.90;;;;;;5074533;28;19908;-64
2022/12/26 09:58:52;;;;;;;;;;;11.70;99.90;;;;;;5074271;28;19908;-64
2022/12/26 10:01:34;;;;;;;;;;;12.00;99.90;;;;;;5074260;28;19908;-64
2022/12/26 10:04:03;;;;;;;;;;;12.50;99.90;;;;;;5073605;28;20397;-64
2022/12/26 10:06:33;;;;;;;;;;;12.80;99.90;;;;;;5074143;28;20365;-64
2022/12/26 10:09:18;;;;;;;;;;;13.20;99.90;;;;;;5056264;28;20050;-64
2022/12/26 10:12:03;;;;;;;;;;;13.00;99.90;;;;;;5074322;28;19908;-63
2022/12/26 10:14:37;;;;;;;;;;;13.00;99.90;;;;;;5055796;28;19920;-63
2022/12/26 10:17:07;;;;;;;;;;;13.00;99.90;;;;;;5073976;28;19959;-63
2022/12/26 10:19:53;;;;;;;;;;;12.80;99.90;;;;;;5073955;28;19915;-63
2022/12/26 10:22:38;;;;;;;;;;;12.90;99.90;;;;;;5073883;28;19915;-63
2022/12/26 10:25:12;;;;;;;;;;;12.70;99.90;;;;;;5073700;28;19996;-64
2022/12/26 10:27:39;;;;;;;;;;;12.30;99.90;;;;;;5074080;28;20282;-63
2022/12/26 10:30:07;;;;;;;;;;;11.70;99.90;;;;;;5074100;28;20310;-63
2022/12/26 10:32:36;;;;;;;;;;;11.70;99.90;;;;;;5073815;28;19909;-63
2022/12/26 10:35:14;;;;;;;;;;;11.60;99.90;;;;;;5073686;28;19919;-63
2022/12/26 10:37:40;;;;;;;;;;;11.40;99.90;;;;;;5073993;28;19908;-64
2022/12/26 10:40:25;;;;;;;;;;;11.30;99.90;;;;;;5073665;28;19908;-64
2022/12/26 10:42:52;;;;;;;;;;;11.40;99.90;;;;;;5073628;28;19940;-63
2022/12/26 10:45:24;;;;;;;;;;;11.40;99.90;;;;;;5073591;28;19916;-63
2022/12/26 10:47:50;;;;;;;;;;;11.30;99.90;;;;;;5073902;28;20285;-64
2022/12/26 10:50:17;;;;;;;;;;;11.50;99.90;;;;;;5073608;28;19974;-63
2022/12/26 10:52:43;;;;;;;;;;;11.70;99.90;;;;;;5073592;28;19908;-63
2022/12/26 10:55:13;;;;;;;;;;;11.60;99.90;;;;;;5073372;28;19947;-63
2022/12/26 10:57:40;;;;;;;;;;;11.50;99.90;;;;;;5073804;28;20380;-63
2022/12/26 11:00:13;;;;;;;;;;;11.50;99.90;;;;;;5073768;28;19916;-63
2022/12/26 11:02:38;;;;;;;;;;;11.40;99.90;;;;;;5073391;28;20032;-63
2022/12/26 11:05:07;;;;;;;;;;;11.50;99.90;;;;;;5055507;28;19921;-63
2022/12/26 11:07:35;;;;;;;;;;;11.90;99.90;;;;;;5073685;28;19909;-63
2022/12/26 11:10:01;;;;;;;;;;;12.00;99.90;;;;;;5073655;28;20289;-63
2022/12/26 11:12:33;;;;;;;;;;;11.90;99.90;;;;;;5073421;28;19931;-63
2022/12/26 11:15:00;;;;;;;;;;;11.70;99.90;;;;;;5073483;28;19956;-63
2022/12/26 11:17:27;;;;;;;;;;;11.60;99.90;;;;;;5059837;28;19915;-63
2022/12/26 11:20:13;;;;;;;;;;;11.50;99.90;;;;;;5077551;28;19912;-64
2022/12/26 11:22:38;;;;;;;;;;;11.40;99.90;;;;;;5077181;28;19931;-63
2022/12/26 11:25:14;;;;;;;;;;;11.40;99.90;;;;;;5077234;28;19913;-63
2022/12/26 11:27:41;;;;;;;;;;;11.40;99.90;;;;;;5077425;28;19916;-63
2022/12/26 11:30:27;;;;;;;;;;;11.30;99.90;;;;;;5077112;28;19912;-63
2022/12/26 11:33:12;;;;;;;;;;;11.20;99.90;;;;;;5076967;28;19957;-64
2022/12/26 11:35:45;;;;;;;;;;;11.20;99.90;;;;;;5076890;28;19919;-63
2022/12/26 11:38:33;;;;;;;;;;;11.20;99.90;;;;;;5059046;28;19908;-63
2022/12/26 11:41:31;;;;;;;;;;;11.20;99.90;;;;;;5076852;28;19916;-63
2022/12/26 11:43:45;;;;;;;;;;;11.10;99.90;;;;;;5076672;28;19915;-63
2022/12/26 11:46:11;;;;;;;;;;;11.00;99.90;;;;;;5076795;28;19952;-63
2022/12/26 11:48:37;;;;;;;;;;;10.90;99.90;;;;;;5077056;28;19909;-64
2022/12/26 11:51:02;;;;;;;;;;;10.90;99.90;;;;;;5076795;28;20366;-63
2022/12/26 11:53:30;;;;;;;;;;;10.90;99.90;;;;;;5076411;28;20289;-63
2022/12/26 11:55:57;;;;;;;;;;;10.90;99.90;;;;;;5076631;28;19915;-64
2022/12/26 11:58:24;;;;;;;;;;;11.00;99.90;;;;;;5058738;28;20271;-63
2022/12/26 12:03:30;;;;;;;;;;;10.90;99.90;;;;;;5091320;28;20392;-63
2022/12/26 12:06:01;;;;;;;;;;;10.80;99.90;;;;;;5091209;28;19966;-63
2022/12/26 12:08:46;;;;;;;;;;;10.80;99.90;;;;;;5090969;28;20384;-63
2022/12/26 12:13:57;;;;;;;;;;;10.80;99.90;;;;;;5091291;28;20370;-63
2022/12/26 12:16:43;;;;;;;;;;;10.70;99.90;;;;;;5124145;28;19912;-65
2022/12/26 12:19:23;;;;;;;;;;;10.60;99.90;;;;;;5118544;28;20289;-63
2022/12/26 12:22:08;;;;;;;;;;;10.50;99.90;;;;;;5091088;28;19999;-63
2022/12/26 12:24:43;;;;;;;;;;;10.70;99.90;;;;;;5089753;28;19938;-63
2022/12/26 12:27:28;;;;;;;;;;;10.70;99.90;;;;;;5091241;28;20332;-63
2022/12/26 12:30:13;;;;;;;;;;;10.70;99.90;;;;;;5091050;28;20397;-63
2022/12/26 12:32:59;;;;;;;;;;;10.80;99.90;;;;;;5090851;28;19913;-63
2022/12/26 12:35:31;;;;;;;;;;;10.90;99.90;;;;;;5090911;28;20331;-63
2022/12/26 12:38:08;;;;;;;;;;;10.90;99.90;;;;;;5091036;28;19958;-63
2022/12/26 12:40:54;;;;;;;;;;;10.80;99.90;;;;;;5091000;28;19916;-63
2022/12/26 12:43:32;;;;;;;;;;;10.80;99.90;;;;;;5090848;28;19913;-63
2022/12/26 12:49:11;;;;;;;;;;;11.00;99.90;;;;;;5091388;27;20270;-63
2022/12/26 12:51:44;;;;;;;;;;;11.10;99.90;;;;;;5123875;28;19975;-63
2022/12/26 12:54:30;;;;;;;;;;;11.20;99.90;;;;;;5091155;28;20007;-63
2022/12/26 12:57:02;;;;;;;;;;;11.20;99.90;;;;;;5091104;28;19908;-63
2022/12/26 12:59:36;;;;;;;;;;;11.30;99.90;;;;;;5090966;28;19908;-63
2022/12/26 13:02:08;;;;;;;;;;;11.30;99.90;;;;;;5091008;28;20362;-63
2022/12/26 13:04:40;;;;;;;;;;;11.20;99.90;;;;;;5089696;28;19913;-63
2022/12/26 13:07:10;;;;;;;;;;;11.00;99.90;;;;;;5090818;28;19912;-63
2022/12/26 13:12:17;;;;;;;;;;;10.50;99.90;;;;;;5071183;28;19913;-63
2022/12/26 13:14:48;;;;;;;;;;;10.00;99.90;;;;;;5086616;28;19944;-63
2022/12/26 13:17:17;;;;;;;;;;;9.80;99.90;;;;;;5071174;28;19909;-63
2022/12/26 13:19:50;;;;;;;;;;;9.70;99.90;;;;;;5070851;28;19909;-63
2022/12/26 13:22:22;;;;;;;;;;;9.60;99.90;;;;;;5070808;28;19909;-63
2022/12/26 13:24:52;;;;;;;;;;;9.40;99.90;;;;;;5070796;28;20337;-63
2022/12/26 13:27:24;;;;;;;;;;;9.30;99.90;;;;;;5070709;28;19913;-63
2022/12/26 13:29:51;;;;;;;;;;;9.30;99.90;;;;;;5070609;28;20390;-63
2022/12/26 13:32:32;;;;;;;;;;;9.20;99.90;;;;;;5070631;28;19909;-63
2022/12/26 13:34:58;;;;;;;;;;;9.20;99.90;;;;;;5070603;28;19909;-63
2022/12/26 13:37:41;;;;;;;;;;;9.20;99.90;;;;;;5070570;28;19909;-63
2022/12/26 13:48:16;;;;;;;;;;;9.00;99.90;;;;;;5091323;27;19912;-62
2022/12/26 13:50:50;;;;;;;;;;;9.00;99.90;;;;;;5091267;28;19912;-62
2022/12/26 13:56:09;;;;;;;;;;;8.90;99.90;;;;;;5091318;27;19912;-63
2022/12/26 13:58:55;;;;;;;;;;;8.90;99.90;;;;;;5091181;28;19912;-63
2022/12/26 14:01:40;;;;;;;;;;;8.90;99.90;;;;;;5091134;28;19908;-63
2022/12/26 14:04:18;;;;;;;;;;;8.90;99.90;;;;;;5091160;28;19908;-63
2022/12/26 14:06:48;;;;;;;;;;;8.80;99.90;;;;;;5091017;28;19908;-63
2022/12/26 14:09:22;;;;;;;;;;;8.90;99.90;;;;;;5091215;28;19908;-63
2022/12/26 14:11:54;;;;;;;;;;;8.80;99.90;;;;;;5089640;28;19912;-63
2022/12/26 14:14:36;;;;;;;;;;;8.80;99.90;;;;;;5090874;28;20262;-63
2022/12/26 14:17:22;;;;;;;;;;;8.80;99.90;;;;;;5090883;28;19908;-63
2022/12/26 14:20:07;;;;;;;;;;;8.80;99.90;;;;;;5090865;28;19955;-63
2022/12/26 14:25:30;;;;;;;;;;;8.70;99.90;;;;;;5091454;27;19912;-63
2022/12/26 14:28:01;;;;;;;;;;;8.70;99.90;;;;;;5091172;28;19912;-63
2022/12/26 14:33:18;;;;;;;;;;;8.60;99.90;;;;;;5091355;27;19919;-63
2022/12/26 14:35:53;;;;;;;;;;;8.50;99.90;;;;;;5091482;28;19912;-63
2022/12/26 14:38:26;;;;;;;;;;;8.50;99.90;;;;;;5091111;28;19951;-63
2022/12/26 14:41:01;;;;;;;;;;;8.40;99.90;;;;;;5091099;28;19915;-63
2022/12/26 14:43:31;;;;;;;;;;;8.30;99.90;;;;;;5124135;28;20007;-64
2022/12/26 14:45:57;;;;;;;;;;;8.20;99.90;;;;;;5091014;28;19908;-64
2022/12/26 14:48:25;;;;;;;;;;;8.10;99.90;;;;;;5090957;28;19931;-63
2022/12/26 14:50:53;;;;;;;;;;;8.00;99.90;;;;;;5090942;28;19916;-63
2022/12/26 14:56:01;;;;;;;;;;;7.90;99.90;;;;;;5091289;27;20288;-63
2022/12/26 14:58:34;;;;;;;;;;;7.80;99.90;;;;;;5091386;28;19948;-63
2022/12/26 15:01:18;;;;;;;;;;;7.80;99.90;;;;;;5091077;28;19908;-63
2022/12/26 15:03:59;;;;;;;;;;;7.80;99.90;;;;;;5091088;28;19908;-63
2022/12/26 15:06:35;;;;;;;;;;;7.80;99.90;;;;;;5091037;28;20277;-63
2022/12/26 15:09:20;;;;;;;;;;;7.70;99.90;;;;;;5090997;28;19908;-63
2022/12/26 15:11:58;;;;;;;;;;;7.70;99.90;;;;;;5090927;28;19912;-63
2022/12/26 15:14:43;;;;;;;;;;;7.60;99.90;;;;;;5090757;28;19913;-63
2022/12/26 15:17:22;;;;;;;;;;;7.60;99.90;;;;;;5090792;28;20011;-63
2022/12/26 15:20:08;;;;;;;;;;;7.50;99.90;;;;;;5090717;28;19908;-63
2022/12/26 15:22:53;;;;;;;;;;;7.50;99.90;;;;;;5090711;28;19909;-63
2022/12/26 15:25:31;;;;;;;;;;;7.50;99.90;;;;;;5090701;28;19912;-63
2022/12/26 15:27:59;;;;;;;;;;;7.40;99.90;;;;;;5123484;28;19983;-63
2022/12/26 15:30:45;;;;;;;;;;;7.40;99.90;;;;;;5090720;28;19916;-63
2022/12/26 15:33:15;;;;;;;;;;;7.40;99.90;;;;;;5089296;28;19951;-63
2022/12/26 15:35:47;;;;;;;;;;;7.30;99.90;;;;;;5090400;28;19966;-63
2022/12/26 15:38:24;;;;;;;;;;;7.30;99.90;;;;;;5090700;28;19909;-63
2022/12/26 15:40:55;;;;;;;;;;;7.30;99.90;;;;;;5090406;28;19919;-63
2022/12/26 15:43:27;;;;;;;;;;;7.30;99.90;;;;;;5122534;28;20267;-63
2022/12/26 15:45:58;;;;;;;;;;;7.30;99.90;;;;;;5090267;28;19915;-63
2022/12/26 15:48:28;;;;;;;;;;;7.30;99.90;;;;;;5090214;28;19926;-63
2022/12/26 15:51:03;;;;;;;;;;;7.20;99.90;;;;;;5090434;28;19908;-63
2022/12/26 15:53:49;;;;;;;;;;;7.20;99.90;;;;;;5090091;28;19915;-63
2022/12/26 15:56:34;;;;;;;;;;;7.20;99.90;;;;;;5110177;28;19927;-63
2022/12/26 15:59:08;;;;;;;;;;;7.20;99.90;;;;;;5110242;28;19944;-63
2022/12/26 16:01:37;;;;;;;;;;;7.10;99.90;;;;;;5110588;28;20281;-63
2022/12/26 16:04:05;;;;;;;;;;;7.10;99.90;;;;;;5092156;28;19957;-63
2022/12/26 16:06:39;;;;;;;;;;;7.10;99.90;;;;;;5101130;28;19944;-63
2022/12/26 16:09:23;;;;;;;;;;;7.00;99.90;;;;;;5096622;28;20381;-63
2022/12/26 16:11:57;;;;;;;;;;;7.00;99.90;;;;;;5096541;28;19908;-63
2022/12/26 16:14:27;;;;;;;;;;;7.00;99.90;;;;;;5078352;28;19912;-63
2022/12/26 16:16:53;;;;;;;;;;;6.90;99.90;;;;;;5096424;28;19908;-63
2022/12/26 16:19:21;;;;;;;;;;;6.80;99.90;;;;;;5096292;28;19915;-63
2022/12/26 16:24:36;;;;;;;;;;;6.60;99.90;;;;;;5096137;28;20356;-63
2022/12/26 16:27:03;;;;;;;;;;;6.50;99.90;;;;;;5096215;28;19994;-63
2022/12/26 16:29:29;;;;;;;;;;;6.40;99.90;;;;;;5096275;28;19953;-63
2022/12/26 16:32:03;;;;;;;;;;;6.30;99.90;;;;;;5096187;28;20357;-63
2022/12/26 16:34:31;;;;;;;;;;;6.20;99.90;;;;;;5096308;28;19912;-64
2022/12/26 16:36:56;;;;;;;;;;;6.20;99.90;;;;;;5096130;28;19909;-63
2022/12/26 16:39:22;;;;;;;;;;;6.00;99.90;;;;;;5096006;28;19908;-63
2022/12/26 16:41:56;;;;;;;;;;;6.00;99.90;;;;;;5096004;28;19908;-63
2022/12/26 16:44:43;;;;;;;;;;;5.90;99.90;;;;;;5095918;28;19992;-63
2022/12/26 16:47:10;;;;;;;;;;;5.90;99.90;;;;;;5095883;28;19908;-63
2022/12/26 16:49:36;;;;;;;;;;;5.80;99.90;;;;;;5077656;28;20369;-63
2022/12/26 16:52:01;;;;;;;;;;;5.80;99.90;;;;;;5095798;28;19960;-63
2022/12/26 16:54:29;;;;;;;;;;;5.80;99.90;;;;;;5095514;28;19924;-64
2022/12/26 16:57:07;;;;;;;;;;;5.70;99.90;;;;;;5077791;28;20396;-63
2022/12/26 16:59:50;;;;;;;;;;;5.60;99.90;;;;;;5077584;28;19908;-63
2022/12/26 17:02:33;;;;;;;;;;;5.60;99.90;;;;;;5095585;28;19915;-63
2022/12/26 17:05:03;;;;;;;;;;;5.50;99.90;;;;;;5077369;28;20342;-64
2022/12/26 17:07:29;;;;;;;;;;;5.40;99.90;;;;;;5095524;28;19908;-63
2022/12/26 17:09:56;;;;;;;;;;;5.40;99.90;;;;;;5095711;28;20369;-64
2022/12/26 17:12:24;;;;;;;;;;;5.30;99.90;;;;;;5095341;28;20400;-63
2022/12/26 17:14:51;;;;;;;;;;;5.30;99.90;;;;;;5095237;28;19961;-63
2022/12/26 17:20:22;;;;;;;;;;;5.20;99.90;;;;;;5071140;28;19935;-63